KGEU

Glendale Municipal Airport

Glendale, Arizona, USA
METAR KGEU 231358Z 00000KT 10SM SKC 21/00 A2989
Observed Flight Rules
May-23 @ 13:58 UTC (an hour ago) Visual Flight Rules
Visibility Clouds
10 miles
  • Clear skies
Temperatures Readings
Current 21°C / 70°F
Dewpoint 0°C / 32°F
Humidity 25%
Altimeter 29.89" Hg
Pressure 1012 hPa
Elevation 325
METAR KGEU 231358Z 00000KT 10SM SKC 21/00 A2989
Observed Flight Rules
May-23 @ 13:58 UTC
(an hour ago)
VFR
Clouds
  • Clear skies
Temperature Dewpoint
21°C / 70°F 0°C / 32°F
Humidity Altimeter Pressure
25% 29.89" Hg 1012 hPa